Morristown, AZ

2:39 PM MST on October 23, 2014 (GMT -0700)
239th Ave and Pinnacle Vista Lane | Change Station
CLOSE
Current Station
Personal Weather Station
Location: Wittmann, AZ
Elevation: 1608 ft
Nearby Weather Stations

Elev 1608 ft 33.73 °N, 112.58 °W | Updated 5 seconds ago

Clear
Clear
89.6 °F
Feels Like 87 °F
N
3.0
Wind Variable Wind from East
Gusts 6.0 mph

Today
High -- | Low -- °F
--% Chance of Precip.
Yesterday
High -- | Low -- °F
Precip. -- in
6:41 AM 5:46 PM
Waning Crescent, 0% visible
Pressure 29.92 in
Visibility 10.0 miles
Clouds Clear
Heat Index 87 °F
Dew Point 50 °F
Humidity 26%
Rainfall 0.00 in
Snow Depth Not available.
UV 5 out of 12
Pollen 5.50 out of 12
PM2.5 Good
Flu Activity No Activity
METAR KLUF 232058Z AUTO 00000KT 10SM CLR 32/11 A2995 RMK AO2 SLP131 T03160108 57025 $

More Conditions Fewer Conditions

Pressure 29.92 in
Visibility 10.0 miles
Clouds Clear
Heat Index 87 °F
Dew Point 50 °F
Humidity 26%
Rainfall 0.00 in
Snow Depth Not available.
UV 5 out of 12
Pollen 5.50 out of 12
PM2.5 Good
Flu Activity No Activity
METAR KLUF 232058Z AUTO 00000KT 10SM CLR 32/11 A2995 RMK AO2 SLP131 T03160108 57025 $

More Conditions Fewer Conditions

10-Day Weather Forecast

Almanac

Astronomy

Oct. 23, 2014 Rise Set
Actual Time 6:41 AM MST 5:46 PM MST
Civil Twilight 6:16 AM MST 6:12 PM MST
Nautical Twilight 5:47 AM MST 6:41 PM MST
Astronomical Twilight 5:18 AM MST 7:10 PM MST
Moon 6:26 AM MST 5:51 PM MST
Length of Visible Light 11h 55m
Length of Day
11h 05m
Tomorrow will be 1m 57s shorter.
Waning Crescent, 0% of the Moon is Illuminated
Today
Waning Crescent
Oct 23
New
Oct 30
First Quarter
Nov 6
Full
Nov 14
Last Quarter

Today's Extremes

State Highs State Lows

Community

WunderPhotos

Upload Photos

1,764,379 photos uploaded!

WunderBlogs® & News

Nearby

Air Quality

  Air Quality AQ Index Pollutant
Yesterday Good
OZONE
Yesterday Good
PM10
Current Good
PM2.5
Thursday Good
OZONE
Thursday Good
PM10
Thursday Good
CO
Friday Good
OZONE
Friday Good
PM10
Friday Good
CO
Saturday Good
OZONE
Saturday Good
PM10
Saturday Good
CO

Snow Depth

Station Depth Elevation
Baldy 0 in 9125 ft
Hannagan Meadows 0 in 9020 ft
Beaver Head 0 in 7990 ft

Earthquake Activity

City Distance Mag. Time & Date
No recent earthquake activity has been reported nearby.
Minimum magnitude displayed is 2.5.

Coastal Water Temperatures

Place Temperature
No Stations Reporting

Nearby Weather Stations